createdAt,value
2022-11-01T00:01:43.391Z,37.50
2022-11-01T00:04:12.465Z,34.00
2022-11-01T00:06:40.288Z,32.70
2022-11-01T00:09:08.667Z,32.50
2022-11-01T00:11:36.742Z,33.80
2022-11-01T00:14:05.133Z,35.00
2022-11-01T00:16:33.012Z,35.40
2022-11-01T00:19:00.645Z,37.20
2022-11-01T00:21:28.508Z,35.60
2022-11-01T00:23:56.272Z,34.70
2022-11-01T00:26:24.661Z,37.20
2022-11-01T00:28:52.824Z,37.60
2022-11-01T00:31:21.509Z,39.90
2022-11-01T00:33:49.122Z,34.70
2022-11-01T00:36:17.062Z,32.50
2022-11-01T00:38:45.313Z,30.50
2022-11-01T00:41:15.745Z,30.90
2022-11-01T00:43:43.619Z,28.10
2022-11-01T00:46:11.675Z,26.20
2022-11-01T00:48:39.850Z,26.10
2022-11-01T00:51:07.823Z,26.70
2022-11-01T00:53:35.676Z,26.40
2022-11-01T00:56:04.755Z,27.40
2022-11-01T00:58:32.752Z,26.70
2022-11-01T01:01:00.456Z,25.80
2022-11-01T01:03:28.998Z,25.10
2022-11-01T01:05:57.271Z,26.60
2022-11-01T01:08:25.643Z,34.40
2022-11-01T01:10:53.820Z,28.60
2022-11-01T01:13:21.872Z,29.50
2022-11-01T01:15:49.514Z,29.10
2022-11-01T01:18:17.470Z,35.50
2022-11-01T01:20:45.389Z,28.70
2022-11-01T01:23:13.047Z,27.40
2022-11-01T01:25:41.732Z,25.50
2022-11-01T01:28:10.267Z,23.20
2022-11-01T01:30:41.879Z,22.20
2022-11-01T01:33:10.243Z,21.30
2022-11-01T01:35:39.137Z,31.50
2022-11-01T01:38:07.216Z,38.10
2022-11-01T01:40:35.386Z,42.10
2022-11-01T01:43:03.554Z,36.30
2022-11-01T01:45:33.466Z,90.20
2022-11-01T01:48:10.237Z,50.70
2022-11-01T01:50:57.343Z,56.00
2022-11-01T01:53:28.809Z,65.20
2022-11-01T01:56:00.777Z,119.40
2022-11-01T01:58:30.754Z,97.20
2022-11-01T02:00:59.501Z,125.30
2022-11-01T02:03:30.204Z,81.30
2022-11-01T02:06:14.399Z,77.50
2022-11-01T02:08:44.471Z,75.10
2022-11-01T02:11:13.672Z,72.80
2022-11-01T02:13:41.253Z,43.40
2022-11-01T02:16:09.100Z,29.50
2022-11-01T02:18:52.216Z,27.00
2022-11-01T02:21:36.351Z,25.80
2022-11-01T02:24:07.480Z,29.10
2022-11-01T02:26:54.227Z,28.80
2022-11-01T02:29:29.147Z,27.50
2022-11-01T02:32:00.264Z,40.50
2022-11-01T02:34:35.440Z,34.60
2022-11-01T02:37:21.520Z,96.50
2022-11-01T02:39:52.154Z,72.20
2022-11-01T02:42:22.002Z,79.10
2022-11-01T02:44:53.947Z,63.60
2022-11-01T02:47:23.735Z,62.70
2022-11-01T02:49:52.731Z,40.50
2022-11-01T02:52:25.054Z,34.40
2022-11-01T02:54:56.227Z,39.90
2022-11-01T02:57:24.109Z,33.50
2022-11-01T02:59:51.974Z,34.10
2022-11-01T03:02:41.959Z,32.50
2022-11-01T03:05:17.062Z,52.20
2022-11-01T03:07:47.849Z,51.70
2022-11-01T03:10:16.108Z,41.20
2022-11-01T03:12:52.473Z,45.60
2022-11-01T03:15:26.185Z,43.30
2022-11-01T03:18:01.800Z,41.60
2022-11-01T03:20:47.506Z,41.10
2022-11-01T03:23:22.027Z,34.90
2022-11-01T03:25:54.911Z,31.80
2022-11-01T03:28:28.948Z,29.50
2022-11-01T03:31:03.802Z,30.50
2022-11-01T03:33:33.768Z,28.70
2022-11-01T03:36:11.954Z,33.00
2022-11-01T03:38:44.044Z,31.20
2022-11-01T03:41:13.869Z,32.90
2022-11-01T03:43:41.965Z,33.10
2022-11-01T03:46:09.904Z,36.80
2022-11-01T03:48:41.025Z,50.60
2022-11-01T03:51:09.492Z,45.20
2022-11-01T03:53:37.186Z,44.60
2022-11-01T03:56:05.154Z,43.00
2022-11-01T03:58:41.986Z,39.60
2022-11-01T04:01:10.959Z,42.00
2022-11-01T04:03:39.085Z,42.60
2022-11-01T04:06:07.258Z,44.00
2022-11-01T04:08:35.231Z,40.30
2022-11-01T04:11:03.510Z,48.00
2022-11-01T04:13:31.474Z,44.80
2022-11-01T04:16:17.823Z,67.90
2022-11-01T04:19:04.885Z,52.10
2022-11-01T04:21:33.163Z,50.20
2022-11-01T04:24:00.768Z,44.60
2022-11-01T04:26:28.587Z,46.80
2022-11-01T04:28:58.853Z,42.90
2022-11-01T04:31:31.283Z,48.00
2022-11-01T04:33:59.443Z,52.60
2022-11-01T04:36:27.832Z,44.90
2022-11-01T04:38:56.521Z,46.70
2022-11-01T04:41:25.309Z,44.50
2022-11-01T04:43:54.400Z,57.90
2022-11-01T04:46:22.472Z,84.40
2022-11-01T04:48:50.729Z,63.90
2022-11-01T04:51:18.616Z,62.60
2022-11-01T04:53:46.277Z,52.00
2022-11-01T04:56:14.151Z,61.70
2022-11-01T04:58:45.965Z,51.20
2022-11-01T05:01:15.232Z,57.50
2022-11-01T05:03:43.325Z,54.00
2022-11-01T05:06:11.180Z,51.30
2022-11-01T05:08:40.390Z,123.80
2022-11-01T05:11:08.082Z,104.30
2022-11-01T05:13:36.152Z,93.50
2022-11-01T05:16:18.891Z,71.90
2022-11-01T05:18:48.384Z,63.30
2022-11-01T05:21:16.311Z,50.20
2022-11-01T05:23:44.223Z,49.90
2022-11-01T05:26:11.786Z,47.80
2022-11-01T05:28:40.387Z,67.90
2022-11-01T05:31:08.229Z,52.40
2022-11-01T05:33:35.991Z,52.80
2022-11-01T05:36:03.765Z,51.30
2022-11-01T05:38:31.621Z,47.70
2022-11-01T05:41:01.673Z,53.80
2022-11-01T05:43:30.414Z,45.00
2022-11-01T05:45:58.600Z,56.90
2022-11-01T05:48:26.362Z,51.70
2022-11-01T05:50:54.538Z,56.00
2022-11-01T05:53:22.400Z,83.40
2022-11-01T05:55:50.047Z,73.20
2022-11-01T05:58:18.338Z,68.40
2022-11-01T06:00:46.081Z,49.70
2022-11-01T06:03:13.764Z,52.70
2022-11-01T06:05:41.622Z,49.20
2022-11-01T06:08:09.391Z,49.60
2022-11-01T06:10:37.157Z,46.20
2022-11-01T06:13:05.228Z,52.30
2022-11-01T06:15:35.791Z,47.10
2022-11-01T06:18:07.112Z,48.00
2022-11-01T06:20:37.023Z,47.80
2022-11-01T06:23:11.553Z,45.90
2022-11-01T06:25:39.215Z,47.40
2022-11-01T06:28:07.187Z,47.80
2022-11-01T06:30:37.714Z,46.50
2022-11-01T06:33:09.489Z,48.90
2022-11-01T06:35:37.562Z,46.00
2022-11-01T06:38:06.925Z,56.20
2022-11-01T06:40:35.208Z,50.10
2022-11-01T06:43:04.770Z,51.80
2022-11-01T06:45:33.360Z,47.60
2022-11-01T06:48:01.357Z,48.70
2022-11-01T06:50:29.845Z,46.90
2022-11-01T06:52:58.732Z,45.90
2022-11-01T06:55:27.526Z,44.90
2022-11-01T06:57:57.840Z,44.80
2022-11-01T07:00:26.732Z,41.70
2022-11-01T07:02:58.390Z,44.60
2022-11-01T07:05:26.355Z,42.10
2022-11-01T07:07:55.043Z,42.30
2022-11-01T07:10:23.524Z,42.20
2022-11-01T07:12:51.286Z,42.10
2022-11-01T07:15:19.273Z,43.50
2022-11-01T07:17:48.185Z,44.00
2022-11-01T07:20:15.908Z,42.70
2022-11-01T07:22:43.569Z,43.20
2022-11-01T07:25:11.540Z,41.40
2022-11-01T07:27:39.302Z,41.10
2022-11-01T07:30:07.696Z,40.40
2022-11-01T07:32:39.029Z,41.00
2022-11-01T07:35:08.531Z,49.10
2022-11-01T07:37:36.397Z,41.80
2022-11-01T07:40:04.784Z,41.90
2022-11-01T07:42:32.400Z,41.20
2022-11-01T07:45:00.112Z,39.60
2022-11-01T07:47:27.867Z,38.40
2022-11-01T07:49:55.700Z,43.30
2022-11-01T07:52:23.319Z,40.30
2022-11-01T07:54:51.161Z,37.80
2022-11-01T07:57:19.537Z,39.60
2022-11-01T07:59:48.088Z,42.50
2022-11-01T08:02:16.733Z,61.80
2022-11-01T08:04:44.972Z,69.80
2022-11-01T08:07:13.769Z,36.80
2022-11-01T08:09:44.293Z,37.30
2022-11-01T08:12:11.970Z,37.70
2022-11-01T08:14:40.028Z,34.20
2022-11-01T08:17:09.016Z,34.60
2022-11-01T08:19:36.986Z,35.20
2022-11-01T08:22:05.770Z,34.00
2022-11-01T08:24:33.614Z,33.00
2022-11-01T08:27:03.651Z,33.10
2022-11-01T08:29:31.725Z,32.30
2022-11-01T08:32:00.114Z,33.40
2022-11-01T08:34:30.904Z,32.70
2022-11-01T08:36:58.904Z,31.70
2022-11-01T08:39:26.679Z,30.10
2022-11-01T08:41:55.449Z,31.70
2022-11-01T08:44:23.533Z,30.10
2022-11-01T08:46:55.417Z,31.20
2022-11-01T08:49:24.045Z,30.00
2022-11-01T08:51:52.247Z,31.80
2022-11-01T08:54:20.023Z,31.30
2022-11-01T08:56:48.185Z,30.90
2022-11-01T08:59:16.531Z,23.60
2022-11-01T09:01:45.121Z,29.80
2022-11-01T09:04:14.238Z,28.70
2022-11-01T09:06:42.205Z,29.40
2022-11-01T09:09:12.864Z,30.40
2022-11-01T09:11:40.762Z,28.70
2022-11-01T09:14:09.184Z,28.70
2022-11-01T09:16:37.153Z,29.30
2022-11-01T09:19:04.889Z,28.90
2022-11-01T09:21:35.247Z,28.80
2022-11-01T09:24:03.005Z,27.40
2022-11-01T09:26:30.971Z,27.30
2022-11-01T09:28:58.836Z,25.20
2022-11-01T09:31:26.465Z,23.50
2022-11-01T09:33:55.387Z,22.40
2022-11-01T09:36:24.285Z,22.30
2022-11-01T09:38:52.351Z,22.70
2022-11-01T09:41:34.657Z,23.40
2022-11-01T09:44:04.883Z,24.50
2022-11-01T09:46:46.467Z,24.00
2022-11-01T09:49:19.247Z,24.80
2022-11-01T09:51:47.323Z,25.50
2022-11-01T09:54:17.391Z,25.40
2022-11-01T09:57:06.397Z,24.40
2022-11-01T09:59:41.530Z,26.20
2022-11-01T10:02:22.157Z,25.50
2022-11-01T10:05:09.738Z,26.60
2022-11-01T10:07:45.785Z,25.10
2022-11-01T10:10:17.134Z,25.90
2022-11-01T10:13:07.937Z,26.00
2022-11-01T10:15:54.441Z,25.10
2022-11-01T10:18:22.414Z,24.70
2022-11-01T10:20:50.172Z,24.10
2022-11-01T10:23:22.283Z,25.50
2022-11-01T10:25:53.100Z,25.60
2022-11-01T10:28:25.934Z,24.80
2022-11-01T10:31:02.968Z,25.10
2022-11-01T10:33:33.988Z,24.60
2022-11-01T10:36:07.242Z,21.10
2022-11-01T10:38:59.552Z,20.30
2022-11-01T10:41:29.221Z,21.50
2022-11-01T10:43:58.817Z,21.20
2022-11-01T10:46:33.034Z,20.60
2022-11-01T10:49:03.358Z,19.70
2022-11-01T10:51:34.917Z,21.40
2022-11-01T10:54:04.840Z,21.40
2022-11-01T10:56:45.212Z,21.90
2022-11-01T10:59:25.950Z,21.40
2022-11-01T11:01:55.134Z,22.40
2022-11-01T11:04:24.857Z,22.10
2022-11-01T11:06:53.237Z,23.50
2022-11-01T11:09:21.105Z,23.40
2022-11-01T11:11:50.400Z,22.80
2022-11-01T11:14:21.143Z,22.60
2022-11-01T11:16:51.874Z,23.20
2022-11-01T11:19:21.547Z,24.10
2022-11-01T11:21:52.668Z,23.70
2022-11-01T11:24:23.310Z,23.40
2022-11-01T11:26:54.314Z,24.00
2022-11-01T11:29:37.857Z,23.90
2022-11-01T11:32:09.254Z,23.40
2022-11-01T11:34:38.571Z,23.80
2022-11-01T11:37:07.981Z,23.70
2022-11-01T11:39:36.938Z,23.90
2022-11-01T11:42:10.979Z,23.80
2022-11-01T11:44:38.772Z,24.80
2022-11-01T11:47:18.381Z,23.10
2022-11-01T11:49:46.471Z,23.10
2022-11-01T11:52:16.277Z,22.50
2022-11-01T11:54:45.159Z,23.50
2022-11-01T11:57:19.722Z,23.30
2022-11-01T11:59:56.489Z,23.50
2022-11-01T12:02:28.771Z,23.20
2022-11-01T12:04:58.329Z,24.00
2022-11-01T12:07:28.261Z,23.90
2022-11-01T12:10:05.027Z,25.00
2022-11-01T12:12:35.048Z,23.80
2022-11-01T12:15:04.245Z,23.50
2022-11-01T12:17:33.849Z,22.80
2022-11-01T12:20:02.973Z,22.10
2022-11-01T12:22:33.426Z,22.20
2022-11-01T12:25:05.989Z,21.80
2022-11-01T12:27:36.821Z,22.10
2022-11-01T12:30:08.789Z,20.90
2022-11-01T12:32:56.275Z,21.40
2022-11-01T12:35:32.027Z,21.40
2022-11-01T12:38:10.874Z,22.20
2022-11-01T12:40:41.677Z,21.10
2022-11-01T12:43:17.855Z,21.10
2022-11-01T12:45:50.302Z,21.00
2022-11-01T12:48:42.681Z,20.30
2022-11-01T12:51:30.806Z,19.60
2022-11-01T12:54:01.182Z,19.70
2022-11-01T12:56:29.611Z,18.50
2022-11-01T12:58:58.749Z,19.40
2022-11-01T13:01:45.927Z,18.80
2022-11-01T13:04:33.573Z,18.20
2022-11-01T13:07:05.704Z,17.70
2022-11-01T13:10:03.274Z,18.60
2022-11-01T13:12:46.591Z,19.00
2022-11-01T13:15:38.010Z,18.60
2022-11-01T13:18:16.643Z,19.30
2022-11-01T13:21:05.998Z,19.60
2022-11-01T13:23:36.426Z,19.10
2022-11-01T13:26:13.548Z,19.70
2022-11-01T13:28:58.526Z,19.60
2022-11-01T13:31:26.447Z,19.30
2022-11-01T13:33:54.311Z,19.20
2022-11-01T13:36:31.827Z,20.10
2022-11-01T13:38:59.897Z,19.30
2022-11-01T13:41:34.710Z,19.60
2022-11-01T13:44:14.954Z,19.60
2022-11-01T13:46:49.117Z,22.40
2022-11-01T13:49:24.117Z,23.70
2022-11-01T13:52:01.921Z,24.40
2022-11-01T13:54:59.561Z,21.40
2022-11-01T13:57:27.832Z,20.50
2022-11-01T13:59:59.696Z,20.90
2022-11-01T14:02:27.628Z,29.40
2022-11-01T14:05:00.257Z,25.40
2022-11-01T14:07:34.424Z,23.80
2022-11-01T14:10:10.640Z,21.00
2022-11-01T14:12:46.631Z,20.10
2022-11-01T14:15:22.164Z,19.30
2022-11-01T14:17:53.322Z,20.20
2022-11-01T14:20:36.914Z,20.40
2022-11-01T14:23:23.401Z,18.80
2022-11-01T14:26:11.236Z,18.10
2022-11-01T14:28:45.430Z,22.80
2022-11-01T14:31:13.519Z,19.20
2022-11-01T14:33:41.545Z,17.70
2022-11-01T14:36:12.229Z,18.10
2022-11-01T14:39:00.572Z,17.20
2022-11-01T14:41:30.180Z,17.70
2022-11-01T14:46:39.101Z,17.80
2022-11-01T14:49:33.658Z,17.80
2022-11-01T14:52:16.344Z,17.90
2022-11-01T14:54:52.485Z,17.90
2022-11-01T14:57:33.252Z,17.70
2022-11-01T15:00:18.599Z,17.80
2022-11-01T15:02:46.397Z,18.10
2022-11-01T15:05:14.430Z,18.10
2022-11-01T15:07:42.737Z,20.00
2022-11-01T15:10:14.498Z,21.10
2022-11-01T15:12:47.824Z,20.80
2022-11-01T15:15:21.921Z,22.00
2022-11-01T15:17:51.405Z,20.00
2022-11-01T15:20:20.096Z,19.00
2022-11-01T15:22:49.397Z,19.10
2022-11-01T15:25:22.695Z,19.90
2022-11-01T15:27:50.856Z,83.10
2022-11-01T15:30:21.283Z,109.10
2022-11-01T15:32:56.214Z,56.90
2022-11-01T15:35:26.030Z,39.50
2022-11-01T15:37:54.504Z,30.40
2022-11-01T15:40:35.225Z,29.30
2022-11-01T15:43:04.189Z,27.30
2022-11-01T15:45:33.772Z,24.20
2022-11-01T15:48:24.170Z,22.70
2022-11-01T15:50:54.893Z,21.50
2022-11-01T15:53:24.858Z,18.50
2022-11-01T15:55:55.033Z,18.60
2022-11-01T15:58:29.666Z,17.80
2022-11-01T16:00:59.509Z,17.40
2022-11-01T16:03:27.335Z,17.70
2022-11-01T16:05:59.724Z,16.80
2022-11-01T16:08:31.360Z,17.20
2022-11-01T16:11:00.241Z,17.30
2022-11-01T16:13:28.631Z,16.90
2022-11-01T16:16:05.847Z,16.50
2022-11-01T16:18:34.343Z,21.70
2022-11-01T16:21:22.761Z,85.30
2022-11-01T16:23:59.262Z,63.80
2022-11-01T16:26:29.328Z,39.80
2022-11-01T16:28:58.833Z,21.90
2022-11-01T16:31:31.108Z,18.60
2022-11-01T16:33:59.285Z,16.30
2022-11-01T16:36:38.095Z,18.00
2022-11-01T16:39:29.086Z,16.50
2022-11-01T16:41:57.801Z,30.40
2022-11-01T16:44:26.175Z,17.80
2022-11-01T16:46:54.548Z,17.00
2022-11-01T16:49:23.737Z,16.80
2022-11-01T16:51:52.850Z,15.30
2022-11-01T16:54:20.708Z,14.20
2022-11-01T16:56:50.832Z,14.50
2022-11-01T16:59:33.029Z,15.10
2022-11-01T17:02:02.594Z,14.80
2022-11-01T17:04:31.327Z,14.90
2022-11-01T17:06:59.497Z,14.30
2022-11-01T17:09:28.914Z,15.70
2022-11-01T17:11:57.393Z,15.70
2022-11-01T17:14:26.604Z,16.30
2022-11-01T17:16:56.577Z,15.60
2022-11-01T17:19:26.617Z,15.30
2022-11-01T17:21:54.953Z,15.10
2022-11-01T17:24:27.073Z,14.50
2022-11-01T17:26:58.092Z,14.50
2022-11-01T17:29:26.802Z,14.90
2022-11-01T17:31:55.259Z,14.50
2022-11-01T17:34:25.514Z,13.90
2022-11-01T17:36:55.086Z,12.50
2022-11-01T17:39:23.880Z,12.40
2022-11-01T17:41:51.842Z,12.20
2022-11-01T17:44:19.609Z,11.70
2022-11-01T17:46:47.673Z,11.10
2022-11-01T17:49:16.266Z,11.00
2022-11-01T17:51:44.068Z,10.00
2022-11-01T17:54:11.867Z,11.10
2022-11-01T17:56:39.649Z,11.40
2022-11-01T17:59:09.973Z,11.00
2022-11-01T18:01:38.809Z,11.10
2022-11-01T18:04:06.839Z,10.90
2022-11-01T18:06:34.698Z,11.50
2022-11-01T18:09:05.634Z,10.10
2022-11-01T18:11:53.725Z,12.40
2022-11-01T18:14:31.171Z,11.80
2022-11-01T18:17:05.146Z,12.60
2022-11-01T18:19:52.503Z,11.80
2022-11-01T18:22:24.059Z,10.80
2022-11-01T18:24:57.659Z,10.20
2022-11-01T18:27:32.594Z,9.50
2022-11-01T18:30:01.583Z,10.50
2022-11-01T18:32:36.831Z,13.10
2022-11-01T18:35:17.802Z,15.80
2022-11-01T18:38:06.027Z,13.20
2022-11-01T18:40:39.940Z,13.70
2022-11-01T18:43:08.073Z,13.90
2022-11-01T18:45:52.800Z,12.50
2022-11-01T18:48:27.937Z,12.50
2022-11-01T18:51:06.043Z,18.10
2022-11-01T18:53:35.119Z,40.60
2022-11-01T18:56:16.465Z,30.40
2022-11-01T18:58:44.667Z,18.80
2022-11-01T19:01:20.131Z,11.00
2022-11-01T19:03:57.206Z,12.00
2022-11-01T19:06:26.292Z,13.70
2022-11-01T19:09:03.427Z,21.50
2022-11-01T19:11:34.268Z,18.60
2022-11-01T19:14:03.510Z,13.00
2022-11-01T19:16:31.683Z,12.10
2022-11-01T19:19:01.528Z,11.90
2022-11-01T19:21:35.925Z,11.80
2022-11-01T19:24:16.915Z,10.60
2022-11-01T19:26:45.370Z,11.50
2022-11-01T19:29:19.097Z,12.30
2022-11-01T19:31:50.629Z,13.40
2022-11-01T19:34:26.295Z,11.50
2022-11-01T19:36:55.678Z,12.20
2022-11-01T19:39:25.573Z,12.90
2022-11-01T19:42:00.177Z,12.60
2022-11-01T19:44:30.960Z,12.50
2022-11-01T19:47:20.247Z,12.20
2022-11-01T19:49:50.857Z,9.60
2022-11-01T19:52:30.077Z,8.30
2022-11-01T19:54:59.258Z,8.10
2022-11-01T19:57:33.724Z,8.40
2022-11-01T20:00:12.941Z,10.10
2022-11-01T20:02:43.554Z,11.10
2022-11-01T20:05:30.378Z,15.30
2022-11-01T20:08:15.215Z,14.50
2022-11-01T20:10:45.012Z,13.90
2022-11-01T20:13:14.140Z,12.50
2022-11-01T20:15:42.408Z,11.20
2022-11-01T20:18:11.409Z,11.20
2022-11-01T20:20:44.882Z,14.20
2022-11-01T20:23:25.949Z,12.20
2022-11-01T20:25:55.584Z,12.40
2022-11-01T20:28:24.883Z,11.70
2022-11-01T20:30:53.892Z,12.60
2022-11-01T20:33:24.131Z,10.40
2022-11-01T20:35:54.252Z,9.50
2022-11-01T20:38:22.808Z,9.10
2022-11-01T20:40:51.744Z,9.90
2022-11-01T20:43:20.168Z,9.80
2022-11-01T20:45:50.433Z,9.80
2022-11-01T20:48:19.725Z,9.70
2022-11-01T20:50:47.658Z,9.30
2022-11-01T20:53:16.807Z,9.40
2022-11-01T20:55:45.745Z,10.00
2022-11-01T20:58:14.439Z,9.90
2022-11-01T21:00:42.299Z,9.90
2022-11-01T21:03:16.306Z,11.80
2022-11-01T21:05:45.936Z,10.60
2022-11-01T21:08:24.325Z,10.70
2022-11-01T21:11:01.092Z,11.10
2022-11-01T21:13:36.547Z,13.00
2022-11-01T21:16:12.424Z,11.10
2022-11-01T21:18:43.960Z,11.20
2022-11-01T21:21:12.458Z,12.10
2022-11-01T21:23:41.463Z,12.40
2022-11-01T21:26:09.838Z,15.30
2022-11-01T21:28:42.297Z,16.50
2022-11-01T21:31:10.355Z,15.80
2022-11-01T21:33:39.585Z,16.00
2022-11-01T21:36:13.148Z,15.30
2022-11-01T21:38:41.553Z,14.50
2022-11-01T21:41:24.680Z,11.50
2022-11-01T21:43:52.567Z,13.00
2022-11-01T21:46:21.917Z,10.70
2022-11-01T21:48:54.202Z,12.50
2022-11-01T21:51:25.010Z,11.30
2022-11-01T21:53:53.763Z,12.30
2022-11-01T21:56:21.576Z,14.50
2022-11-01T21:58:49.436Z,11.60
2022-11-01T22:01:17.567Z,12.20
2022-11-01T22:03:45.791Z,12.20
2022-11-01T22:06:13.651Z,12.10
2022-11-01T22:08:41.623Z,12.80
2022-11-01T22:11:10.327Z,12.80
2022-11-01T22:13:38.699Z,13.10
2022-11-01T22:16:08.774Z,12.60
2022-11-01T22:18:36.764Z,12.70
2022-11-01T22:21:04.428Z,12.50
2022-11-01T22:23:32.176Z,11.80
2022-11-01T22:25:59.838Z,12.10
2022-11-01T22:28:27.683Z,12.40
2022-11-01T22:30:55.482Z,12.00
2022-11-01T22:33:23.450Z,11.30
2022-11-01T22:35:51.226Z,11.60
2022-11-01T22:38:21.247Z,11.70
2022-11-01T22:40:59.746Z,12.10
2022-11-01T22:43:27.453Z,12.30
2022-11-01T22:45:55.273Z,12.80
2022-11-01T22:48:23.572Z,13.10
2022-11-01T22:50:51.326Z,12.90
2022-11-01T22:53:21.327Z,12.60
2022-11-01T22:55:50.630Z,12.90
2022-11-01T22:58:25.252Z,12.30
2022-11-01T23:00:53.320Z,12.50
2022-11-01T23:03:21.190Z,12.00
2022-11-01T23:05:53.869Z,12.20
2022-11-01T23:08:33.615Z,13.00
2022-11-01T23:11:01.991Z,12.10
2022-11-01T23:13:57.709Z,11.90
2022-11-01T23:16:37.044Z,12.20
2022-11-01T23:19:08.175Z,12.70
2022-11-01T23:21:35.849Z,12.60
2022-11-01T23:24:04.161Z,13.10
2022-11-01T23:26:32.313Z,13.00
2022-11-01T23:29:00.706Z,12.80
2022-11-01T23:31:29.263Z,12.20
2022-11-01T23:33:57.450Z,12.60
2022-11-01T23:36:30.457Z,11.90
2022-11-01T23:39:06.854Z,12.20
2022-11-01T23:41:38.006Z,12.40
2022-11-01T23:44:23.917Z,12.80
2022-11-01T23:46:53.113Z,12.10
2022-11-01T23:49:23.256Z,13.10
2022-11-01T23:51:53.563Z,12.20
2022-11-01T23:54:27.416Z,13.80
2022-11-01T23:56:55.844Z,12.00
2022-11-01T23:59:23.402Z,13.20
